sensor_id;sensor_type;location;lat;lon;timestamp;temperature;humidity
31819;DHT22;18384;48.860;9.188;2023-05-10T00:01:28;16.30;99.90
31819;DHT22;18384;48.860;9.188;2023-05-10T00:03:54;16.10;99.90
31819;DHT22;18384;48.860;9.188;2023-05-10T00:06:21;16.10;99.90
31819;DHT22;18384;48.860;9.188;2023-05-10T00:08:47;16.10;99.90
31819;DHT22;18384;48.860;9.188;2023-05-10T00:11:13;15.90;99.90
31819;DHT22;18384;48.860;9.188;2023-05-10T00:13:40;15.80;99.90
31819;DHT22;18384;48.860;9.188;2023-05-10T00:16:06;15.90;99.90
31819;DHT22;18384;48.860;9.188;2023-05-10T00:18:32;15.70;99.90
31819;DHT22;18384;48.860;9.188;2023-05-10T00:20:58;15.70;99.90
31819;DHT22;18384;48.860;9.188;2023-05-10T00:23:24;15.70;99.90
31819;DHT22;18384;48.860;9.188;2023-05-10T00:25:51;15.70;99.90
31819;DHT22;18384;48.860;9.188;2023-05-10T00:28:17;15.70;99.90
31819;DHT22;18384;48.860;9.188;2023-05-10T00:30:43;15.80;99.90
31819;DHT22;18384;48.860;9.188;2023-05-10T00:33:09;15.60;99.90
31819;DHT22;18384;48.860;9.188;2023-05-10T00:35:36;15.60;99.90
31819;DHT22;18384;48.860;9.188;2023-05-10T00:38:03;15.70;99.90
31819;DHT22;18384;48.860;9.188;2023-05-10T00:40:29;15.70;99.90
31819;DHT22;18384;48.860;9.188;2023-05-10T00:42:57;15.60;99.90
31819;DHT22;18384;48.860;9.188;2023-05-10T00:45:24;15.50;99.90
31819;DHT22;18384;48.860;9.188;2023-05-10T00:47:51;15.50;99.90
31819;DHT22;18384;48.860;9.188;2023-05-10T00:50:21;15.50;99.90
31819;DHT22;18384;48.860;9.188;2023-05-10T00:52:49;15.50;99.90
31819;DHT22;18384;48.860;9.188;2023-05-10T00:55:15;15.40;99.90
31819;DHT22;18384;48.860;9.188;2023-05-10T00:57:41;15.40;99.90
31819;DHT22;18384;48.860;9.188;2023-05-10T01:00:09;15.40;99.90
31819;DHT22;18384;48.860;9.188;2023-05-10T01:02:36;15.30;99.90
31819;DHT22;18384;48.860;9.188;2023-05-10T01:05:03;15.30;99.90
31819;DHT22;18384;48.860;9.188;2023-05-10T01:07:29;15.30;99.90
31819;DHT22;18384;48.860;9.188;2023-05-10T01:09:56;15.30;99.90
31819;DHT22;18384;48.860;9.188;2023-05-10T01:12:23;15.30;99.90
31819;DHT22;18384;48.860;9.188;2023-05-10T01:14:49;15.20;99.90
31819;DHT22;18384;48.860;9.188;2023-05-10T01:17:15;15.20;99.90
31819;DHT22;18384;48.860;9.188;2023-05-10T01:19:42;15.20;99.90
31819;DHT22;18384;48.860;9.188;2023-05-10T01:25:43;15.20;99.90
31819;DHT22;18384;48.860;9.188;2023-05-10T01:31:59;15.20;99.90
31819;DHT22;18384;48.860;9.188;2023-05-10T01:35:19;15.20;99.90
31819;DHT22;18384;48.860;9.188;2023-05-10T01:39:40;15.20;99.90
31819;DHT22;18384;48.860;9.188;2023-05-10T01:42:16;15.10;99.90
31819;DHT22;18384;48.860;9.188;2023-05-10T01:45:33;15.20;99.90
31819;DHT22;18384;48.860;9.188;2023-05-10T01:48:10;15.20;99.90
31819;DHT22;18384;48.860;9.188;2023-05-10T01:50:39;15.10;99.90
31819;DHT22;18384;48.860;9.188;2023-05-10T01:53:11;15.00;99.90
31819;DHT22;18384;48.860;9.188;2023-05-10T01:55:56;15.10;99.90
31819;DHT22;18384;48.860;9.188;2023-05-10T01:58:28;15.10;99.90
31819;DHT22;18384;48.860;9.188;2023-05-10T02:00:58;15.10;99.90
31819;DHT22;18384;48.860;9.188;2023-05-10T02:03:27;15.10;99.90
31819;DHT22;18384;48.860;9.188;2023-05-10T02:05:54;15.10;99.90
31819;DHT22;18384;48.860;9.188;2023-05-10T02:08:22;15.10;99.90
31819;DHT22;18384;48.860;9.188;2023-05-10T02:10:51;15.10;99.90
31819;DHT22;18384;48.860;9.188;2023-05-10T02:13:21;15.10;99.90
31819;DHT22;18384;48.860;9.188;2023-05-10T02:15:49;14.90;99.90
31819;DHT22;18384;48.860;9.188;2023-05-10T02:18:18;14.90;99.90
31819;DHT22;18384;48.860;9.188;2023-05-10T02:20:47;15.00;99.90
31819;DHT22;18384;48.860;9.188;2023-05-10T02:23:14;15.00;99.90
31819;DHT22;18384;48.860;9.188;2023-05-10T02:25:43;14.90;99.90
31819;DHT22;18384;48.860;9.188;2023-05-10T02:28:11;14.90;99.90
31819;DHT22;18384;48.860;9.188;2023-05-10T02:30:39;14.90;99.90
31819;DHT22;18384;48.860;9.188;2023-05-10T02:33:06;14.90;99.90
31819;DHT22;18384;48.860;9.188;2023-05-10T02:35:33;14.90;99.90
31819;DHT22;18384;48.860;9.188;2023-05-10T02:38:01;15.00;99.90
31819;DHT22;18384;48.860;9.188;2023-05-10T02:40:27;14.90;99.90
31819;DHT22;18384;48.860;9.188;2023-05-10T02:42:55;15.00;99.90
31819;DHT22;18384;48.860;9.188;2023-05-10T02:45:26;15.00;99.90
31819;DHT22;18384;48.860;9.188;2023-05-10T02:47:54;15.00;99.90
31819;DHT22;18384;48.860;9.188;2023-05-10T02:50:21;15.00;99.90
31819;DHT22;18384;48.860;9.188;2023-05-10T02:52:51;14.90;99.90
31819;DHT22;18384;48.860;9.188;2023-05-10T02:55:20;15.00;99.90
31819;DHT22;18384;48.860;9.188;2023-05-10T02:58:00;14.90;99.90
31819;DHT22;18384;48.860;9.188;2023-05-10T03:00:27;15.00;99.90
31819;DHT22;18384;48.860;9.188;2023-05-10T03:02:53;15.00;99.90
31819;DHT22;18384;48.860;9.188;2023-05-10T03:05:19;15.00;99.90
31819;DHT22;18384;48.860;9.188;2023-05-10T03:07:46;15.00;99.90
31819;DHT22;18384;48.860;9.188;2023-05-10T03:10:12;15.00;99.90
31819;DHT22;18384;48.860;9.188;2023-05-10T03:13:01;15.00;99.90
31819;DHT22;18384;48.860;9.188;2023-05-10T03:15:53;15.00;99.90
31819;DHT22;18384;48.860;9.188;2023-05-10T03:18:48;15.00;99.90
31819;DHT22;18384;48.860;9.188;2023-05-10T03:21:22;15.00;99.90
31819;DHT22;18384;48.860;9.188;2023-05-10T03:23:59;14.90;99.90
31819;DHT22;18384;48.860;9.188;2023-05-10T03:26:32;14.90;99.90
31819;DHT22;18384;48.860;9.188;2023-05-10T03:28:59;14.90;99.90
31819;DHT22;18384;48.860;9.188;2023-05-10T03:31:26;14.90;99.90
31819;DHT22;18384;48.860;9.188;2023-05-10T03:33:53;15.00;99.90
31819;DHT22;18384;48.860;9.188;2023-05-10T03:36:19;15.00;99.90
31819;DHT22;18384;48.860;9.188;2023-05-10T03:38:45;15.10;99.90
31819;DHT22;18384;48.860;9.188;2023-05-10T03:41:11;15.10;99.90
31819;DHT22;18384;48.860;9.188;2023-05-10T03:43:37;15.10;99.90
31819;DHT22;18384;48.860;9.188;2023-05-10T03:46:04;15.10;99.90
31819;DHT22;18384;48.860;9.188;2023-05-10T03:48:32;15.20;99.90
31819;DHT22;18384;48.860;9.188;2023-05-10T03:50:58;15.20;99.90
31819;DHT22;18384;48.860;9.188;2023-05-10T03:53:24;15.20;99.90
31819;DHT22;18384;48.860;9.188;2023-05-10T03:55:50;15.20;99.90
31819;DHT22;18384;48.860;9.188;2023-05-10T03:58:17;15.20;99.90
31819;DHT22;18384;48.860;9.188;2023-05-10T04:00:43;15.20;99.90
31819;DHT22;18384;48.860;9.188;2023-05-10T04:03:14;15.20;99.90
31819;DHT22;18384;48.860;9.188;2023-05-10T04:05:40;15.10;99.90
31819;DHT22;18384;48.860;9.188;2023-05-10T04:08:06;15.20;99.90
31819;DHT22;18384;48.860;9.188;2023-05-10T04:10:32;15.20;99.90
31819;DHT22;18384;48.860;9.188;2023-05-10T04:12:58;15.10;99.90
31819;DHT22;18384;48.860;9.188;2023-05-10T04:15:24;15.20;99.90
31819;DHT22;18384;48.860;9.188;2023-05-10T04:17:50;15.10;99.90
31819;DHT22;18384;48.860;9.188;2023-05-10T04:20:16;15.10;99.90
31819;DHT22;18384;48.860;9.188;2023-05-10T04:22:42;15.10;99.90
31819;DHT22;18384;48.860;9.188;2023-05-10T04:25:09;15.00;99.90
31819;DHT22;18384;48.860;9.188;2023-05-10T04:27:35;15.00;99.90
31819;DHT22;18384;48.860;9.188;2023-05-10T04:30:01;15.00;99.90
31819;DHT22;18384;48.860;9.188;2023-05-10T04:32:27;14.90;99.90
31819;DHT22;18384;48.860;9.188;2023-05-10T04:34:53;14.80;99.90
31819;DHT22;18384;48.860;9.188;2023-05-10T04:37:19;14.80;99.90
31819;DHT22;18384;48.860;9.188;2023-05-10T04:39:46;14.70;99.90
31819;DHT22;18384;48.860;9.188;2023-05-10T04:42:13;14.70;99.90
31819;DHT22;18384;48.860;9.188;2023-05-10T04:44:40;14.80;99.90
31819;DHT22;18384;48.860;9.188;2023-05-10T04:47:06;14.80;99.90
31819;DHT22;18384;48.860;9.188;2023-05-10T04:49:32;14.90;99.90
31819;DHT22;18384;48.860;9.188;2023-05-10T04:51:58;14.90;99.90
31819;DHT22;18384;48.860;9.188;2023-05-10T04:54:25;15.00;99.90
31819;DHT22;18384;48.860;9.188;2023-05-10T04:56:51;15.00;99.90
31819;DHT22;18384;48.860;9.188;2023-05-10T04:59:17;15.20;99.90
31819;DHT22;18384;48.860;9.188;2023-05-10T05:01:43;15.20;99.90
31819;DHT22;18384;48.860;9.188;2023-05-10T05:04:09;15.30;99.90
31819;DHT22;18384;48.860;9.188;2023-05-10T05:06:35;15.40;99.90
31819;DHT22;18384;48.860;9.188;2023-05-10T05:09:01;15.40;99.90
31819;DHT22;18384;48.860;9.188;2023-05-10T05:11:27;15.40;99.90
31819;DHT22;18384;48.860;9.188;2023-05-10T05:13:53;15.40;99.90
31819;DHT22;18384;48.860;9.188;2023-05-10T05:16:20;15.50;99.90
31819;DHT22;18384;48.860;9.188;2023-05-10T05:18:46;15.50;99.90
31819;DHT22;18384;48.860;9.188;2023-05-10T05:21:16;15.50;99.90
31819;DHT22;18384;48.860;9.188;2023-05-10T05:23:43;15.60;99.90
31819;DHT22;18384;48.860;9.188;2023-05-10T05:26:09;15.60;99.90
31819;DHT22;18384;48.860;9.188;2023-05-10T05:28:36;15.80;99.90
31819;DHT22;18384;48.860;9.188;2023-05-10T05:31:06;15.90;99.90
31819;DHT22;18384;48.860;9.188;2023-05-10T05:33:33;15.90;99.90
31819;DHT22;18384;48.860;9.188;2023-05-10T05:36:04;16.00;99.90
31819;DHT22;18384;48.860;9.188;2023-05-10T05:38:30;16.00;99.90
31819;DHT22;18384;48.860;9.188;2023-05-10T05:40:58;16.10;99.90
31819;DHT22;18384;48.860;9.188;2023-05-10T05:43:24;16.10;99.90
31819;DHT22;18384;48.860;9.188;2023-05-10T05:45:51;16.10;99.90
31819;DHT22;18384;48.860;9.188;2023-05-10T05:48:17;16.10;99.90
31819;DHT22;18384;48.860;9.188;2023-05-10T05:50:43;16.10;99.90
31819;DHT22;18384;48.860;9.188;2023-05-10T05:53:11;16.10;99.90
31819;DHT22;18384;48.860;9.188;2023-05-10T05:55:37;16.20;99.90
31819;DHT22;18384;48.860;9.188;2023-05-10T05:58:03;16.20;99.90
31819;DHT22;18384;48.860;9.188;2023-05-10T06:00:29;16.30;99.90
31819;DHT22;18384;48.860;9.188;2023-05-10T06:02:55;16.30;99.90
31819;DHT22;18384;48.860;9.188;2023-05-10T06:05:21;16.30;99.90
31819;DHT22;18384;48.860;9.188;2023-05-10T06:07:47;16.40;99.90
31819;DHT22;18384;48.860;9.188;2023-05-10T06:10:13;16.40;99.90
31819;DHT22;18384;48.860;9.188;2023-05-10T06:12:40;16.40;99.90
31819;DHT22;18384;48.860;9.188;2023-05-10T06:15:07;16.40;99.90
31819;DHT22;18384;48.860;9.188;2023-05-10T06:17:33;16.30;99.90
31819;DHT22;18384;48.860;9.188;2023-05-10T06:19:59;16.40;99.90
31819;DHT22;18384;48.860;9.188;2023-05-10T06:22:26;16.40;99.90
31819;DHT22;18384;48.860;9.188;2023-05-10T06:24:52;16.40;99.90
31819;DHT22;18384;48.860;9.188;2023-05-10T06:27:18;16.50;99.90
31819;DHT22;18384;48.860;9.188;2023-05-10T06:29:44;16.50;99.90
31819;DHT22;18384;48.860;9.188;2023-05-10T06:32:10;16.50;99.90
31819;DHT22;18384;48.860;9.188;2023-05-10T06:34:36;16.50;99.90
31819;DHT22;18384;48.860;9.188;2023-05-10T06:37:02;16.50;99.90
31819;DHT22;18384;48.860;9.188;2023-05-10T06:39:29;16.50;99.90
31819;DHT22;18384;48.860;9.188;2023-05-10T06:41:55;16.50;99.90
31819;DHT22;18384;48.860;9.188;2023-05-10T06:44:21;16.60;99.90
31819;DHT22;18384;48.860;9.188;2023-05-10T06:46:47;16.60;99.90
31819;DHT22;18384;48.860;9.188;2023-05-10T06:49:13;16.70;99.90
31819;DHT22;18384;48.860;9.188;2023-05-10T06:51:39;16.70;99.90
31819;DHT22;18384;48.860;9.188;2023-05-10T06:54:06;16.70;99.90
31819;DHT22;18384;48.860;9.188;2023-05-10T06:56:32;16.70;99.90
31819;DHT22;18384;48.860;9.188;2023-05-10T06:58:58;16.80;99.90
31819;DHT22;18384;48.860;9.188;2023-05-10T07:01:24;16.80;99.90
31819;DHT22;18384;48.860;9.188;2023-05-10T07:03:50;16.90;99.90
31819;DHT22;18384;48.860;9.188;2023-05-10T07:06:16;16.90;99.90
31819;DHT22;18384;48.860;9.188;2023-05-10T07:08:42;17.00;99.90
31819;DHT22;18384;48.860;9.188;2023-05-10T07:11:09;17.10;99.90
31819;DHT22;18384;48.860;9.188;2023-05-10T07:13:36;17.10;99.90
31819;DHT22;18384;48.860;9.188;2023-05-10T07:16:04;17.10;99.90
31819;DHT22;18384;48.860;9.188;2023-05-10T07:18:31;17.10;99.90
31819;DHT22;18384;48.860;9.188;2023-05-10T07:20:57;17.10;99.90
31819;DHT22;18384;48.860;9.188;2023-05-10T07:23:24;17.20;99.90
31819;DHT22;18384;48.860;9.188;2023-05-10T07:25:51;17.30;99.90
31819;DHT22;18384;48.860;9.188;2023-05-10T07:28:18;17.30;99.90
31819;DHT22;18384;48.860;9.188;2023-05-10T07:30:44;17.40;99.90
31819;DHT22;18384;48.860;9.188;2023-05-10T07:33:10;17.40;99.90
31819;DHT22;18384;48.860;9.188;2023-05-10T07:35:37;17.50;99.90
31819;DHT22;18384;48.860;9.188;2023-05-10T07:38:03;17.60;99.90
31819;DHT22;18384;48.860;9.188;2023-05-10T07:40:30;17.50;99.90
31819;DHT22;18384;48.860;9.188;2023-05-10T07:42:57;17.60;99.90
31819;DHT22;18384;48.860;9.188;2023-05-10T07:45:23;16.70;99.70
31819;DHT22;18384;48.860;9.188;2023-05-10T07:47:49;17.70;99.70
31819;DHT22;18384;48.860;9.188;2023-05-10T07:50:15;17.60;99.60
31819;DHT22;18384;48.860;9.188;2023-05-10T07:52:42;17.70;99.00
31819;DHT22;18384;48.860;9.188;2023-05-10T07:55:08;17.60;99.40
31819;DHT22;18384;48.860;9.188;2023-05-10T07:57:35;17.60;98.50
31819;DHT22;18384;48.860;9.188;2023-05-10T08:00:01;17.50;99.00
31819;DHT22;18384;48.860;9.188;2023-05-10T08:02:28;17.50;99.20
31819;DHT22;18384;48.860;9.188;2023-05-10T08:04:55;17.50;99.50
31819;DHT22;18384;48.860;9.188;2023-05-10T08:07:21;17.60;99.90
31819;DHT22;18384;48.860;9.188;2023-05-10T08:09:50;17.70;99.40
31819;DHT22;18384;48.860;9.188;2023-05-10T08:12:16;17.60;98.40
31819;DHT22;18384;48.860;9.188;2023-05-10T08:14:43;17.50;98.80
31819;DHT22;18384;48.860;9.188;2023-05-10T08:17:09;17.40;98.30
31819;DHT22;18384;48.860;9.188;2023-05-10T08:19:35;17.40;99.30
31819;DHT22;18384;48.860;9.188;2023-05-10T08:22:01;17.30;99.20
31819;DHT22;18384;48.860;9.188;2023-05-10T08:24:27;17.30;98.90
31819;DHT22;18384;48.860;9.188;2023-05-10T08:26:53;17.20;99.10
31819;DHT22;18384;48.860;9.188;2023-05-10T08:29:19;17.20;98.90
31819;DHT22;18384;48.860;9.188;2023-05-10T08:31:45;17.20;98.70
31819;DHT22;18384;48.860;9.188;2023-05-10T08:34:11;17.10;99.00
31819;DHT22;18384;48.860;9.188;2023-05-10T08:36:38;17.10;98.40
31819;DHT22;18384;48.860;9.188;2023-05-10T08:39:04;17.10;98.30
31819;DHT22;18384;48.860;9.188;2023-05-10T08:41:33;17.20;98.20
31819;DHT22;18384;48.860;9.188;2023-05-10T08:44:03;17.20;97.90
31819;DHT22;18384;48.860;9.188;2023-05-10T08:46:31;17.20;98.40
31819;DHT22;18384;48.860;9.188;2023-05-10T08:49:02;17.90;98.00
31819;DHT22;18384;48.860;9.188;2023-05-10T08:51:33;17.20;98.40
31819;DHT22;18384;48.860;9.188;2023-05-10T08:54:03;17.30;97.70
31819;DHT22;18384;48.860;9.188;2023-05-10T08:56:29;17.40;98.50
31819;DHT22;18384;48.860;9.188;2023-05-10T08:58:56;17.50;97.70
31819;DHT22;18384;48.860;9.188;2023-05-10T09:01:23;17.70;97.20
31819;DHT22;18384;48.860;9.188;2023-05-10T09:03:50;17.80;97.50
31819;DHT22;18384;48.860;9.188;2023-05-10T09:06:17;17.90;98.10
31819;DHT22;18384;48.860;9.188;2023-05-10T09:08:43;18.00;97.40
31819;DHT22;18384;48.860;9.188;2023-05-10T09:11:11;18.10;95.90
31819;DHT22;18384;48.860;9.188;2023-05-10T09:13:37;18.10;96.10
31819;DHT22;18384;48.860;9.188;2023-05-10T09:16:04;18.20;96.70
31819;DHT22;18384;48.860;9.188;2023-05-10T09:18:30;18.40;96.50
31819;DHT22;18384;48.860;9.188;2023-05-10T09:20:57;18.50;95.10
31819;DHT22;18384;48.860;9.188;2023-05-10T09:23:23;18.50;95.90
31819;DHT22;18384;48.860;9.188;2023-05-10T09:26:06;18.50;95.70
31819;DHT22;18384;48.860;9.188;2023-05-10T09:28:56;18.40;95.80
31819;DHT22;18384;48.860;9.188;2023-05-10T09:31:23;18.50;95.70
31819;DHT22;18384;48.860;9.188;2023-05-10T09:33:53;18.60;95.90
31819;DHT22;18384;48.860;9.188;2023-05-10T09:36:19;18.60;95.30
31819;DHT22;18384;48.860;9.188;2023-05-10T09:38:50;18.60;95.70
31819;DHT22;18384;48.860;9.188;2023-05-10T09:41:23;18.60;94.90
31819;DHT22;18384;48.860;9.188;2023-05-10T09:43:55;18.60;96.20
31819;DHT22;18384;48.860;9.188;2023-05-10T09:46:22;18.80;94.90
31819;DHT22;18384;48.860;9.188;2023-05-10T09:48:48;18.70;94.40
31819;DHT22;18384;48.860;9.188;2023-05-10T09:51:20;18.70;95.40
31819;DHT22;18384;48.860;9.188;2023-05-10T09:53:47;18.80;94.90
31819;DHT22;18384;48.860;9.188;2023-05-10T09:56:33;18.80;96.10
31819;DHT22;18384;48.860;9.188;2023-05-10T09:59:05;20.10;95.60
31819;DHT22;18384;48.860;9.188;2023-05-10T10:01:32;18.90;95.00
31819;DHT22;18384;48.860;9.188;2023-05-10T10:03:59;18.80;96.30
31819;DHT22;18384;48.860;9.188;2023-05-10T10:06:29;18.70;95.70
31819;DHT22;18384;48.860;9.188;2023-05-10T10:08:56;18.70;95.30
31819;DHT22;18384;48.860;9.188;2023-05-10T10:11:22;18.60;96.20
31819;DHT22;18384;48.860;9.188;2023-05-10T10:13:49;18.60;95.90
31819;DHT22;18384;48.860;9.188;2023-05-10T10:16:15;18.60;97.00
31819;DHT22;18384;48.860;9.188;2023-05-10T10:18:41;18.50;95.60
31819;DHT22;18384;48.860;9.188;2023-05-10T10:21:08;18.40;95.70
31819;DHT22;18384;48.860;9.188;2023-05-10T10:23:37;18.40;95.50
31819;DHT22;18384;48.860;9.188;2023-05-10T10:26:04;18.30;95.20
31819;DHT22;18384;48.860;9.188;2023-05-10T10:28:41;18.10;95.60
31819;DHT22;18384;48.860;9.188;2023-05-10T10:31:40;18.10;95.80
31819;DHT22;18384;48.860;9.188;2023-05-10T10:34:26;18.10;96.20
31819;DHT22;18384;48.860;9.188;2023-05-10T10:36:55;18.20;95.80
31819;DHT22;18384;48.860;9.188;2023-05-10T10:39:23;18.20;95.70
31819;DHT22;18384;48.860;9.188;2023-05-10T10:41:55;18.50;95.50
31819;DHT22;18384;48.860;9.188;2023-05-10T10:44:27;18.60;95.10
31819;DHT22;18384;48.860;9.188;2023-05-10T10:49:09;18.60;94.80
31819;DHT22;18384;48.860;9.188;2023-05-10T10:51:39;18.80;95.00
31819;DHT22;18384;48.860;9.188;2023-05-10T10:54:12;19.00;94.60
31819;DHT22;18384;48.860;9.188;2023-05-10T10:56:38;19.10;94.30
31819;DHT22;18384;48.860;9.188;2023-05-10T10:59:04;19.00;93.90
31819;DHT22;18384;48.860;9.188;2023-05-10T11:01:34;18.90;93.80
31819;DHT22;18384;48.860;9.188;2023-05-10T11:04:20;18.80;93.80
31819;DHT22;18384;48.860;9.188;2023-05-10T11:06:46;18.80;94.50
31819;DHT22;18384;48.860;9.188;2023-05-10T11:09:12;17.20;93.70
31819;DHT22;18384;48.860;9.188;2023-05-10T11:11:51;18.80;94.30
31819;DHT22;18384;48.860;9.188;2023-05-10T11:14:23;18.90;94.70
31819;DHT22;18384;48.860;9.188;2023-05-10T11:16:50;18.80;94.10
31819;DHT22;18384;48.860;9.188;2023-05-10T11:19:17;18.80;94.30
31819;DHT22;18384;48.860;9.188;2023-05-10T11:22:12;18.90;94.60
31819;DHT22;18384;48.860;9.188;2023-05-10T11:24:39;19.10;94.10
31819;DHT22;18384;48.860;9.188;2023-05-10T11:27:05;19.20;94.30
31819;DHT22;18384;48.860;9.188;2023-05-10T11:29:31;19.30;93.30
31819;DHT22;18384;48.860;9.188;2023-05-10T11:31:58;19.30;94.10
31819;DHT22;18384;48.860;9.188;2023-05-10T11:34:26;19.30;92.50
31819;DHT22;18384;48.860;9.188;2023-05-10T11:36:56;19.40;91.80
31819;DHT22;18384;48.860;9.188;2023-05-10T11:39:27;19.30;91.90
31819;DHT22;18384;48.860;9.188;2023-05-10T11:41:54;19.20;91.90
31819;DHT22;18384;48.860;9.188;2023-05-10T11:44:21;19.20;91.30
31819;DHT22;18384;48.860;9.188;2023-05-10T11:46:47;19.20;91.00
31819;DHT22;18384;48.860;9.188;2023-05-10T11:49:14;19.10;91.00
31819;DHT22;18384;48.860;9.188;2023-05-10T11:51:40;19.00;91.30
31819;DHT22;18384;48.860;9.188;2023-05-10T11:54:10;19.20;91.30
31819;DHT22;18384;48.860;9.188;2023-05-10T11:56:38;19.00;91.10
31819;DHT22;18384;48.860;9.188;2023-05-10T11:59:04;19.00;91.60
31819;DHT22;18384;48.860;9.188;2023-05-10T12:01:31;18.90;91.60
31819;DHT22;18384;48.860;9.188;2023-05-10T12:03:58;18.90;92.10
31819;DHT22;18384;48.860;9.188;2023-05-10T12:06:27;19.00;91.90
31819;DHT22;18384;48.860;9.188;2023-05-10T12:08:55;19.00;92.30
31819;DHT22;18384;48.860;9.188;2023-05-10T12:11:25;19.00;93.20
31819;DHT22;18384;48.860;9.188;2023-05-10T12:13:52;19.10;92.80
31819;DHT22;18384;48.860;9.188;2023-05-10T12:16:21;19.00;92.30
31819;DHT22;18384;48.860;9.188;2023-05-10T12:18:48;19.00;92.50
31819;DHT22;18384;48.860;9.188;2023-05-10T12:21:16;18.90;92.40
31819;DHT22;18384;48.860;9.188;2023-05-10T12:23:45;18.80;92.80
31819;DHT22;18384;48.860;9.188;2023-05-10T12:26:12;18.80;91.10
31819;DHT22;18384;48.860;9.188;2023-05-10T12:28:38;18.70;91.60
31819;DHT22;18384;48.860;9.188;2023-05-10T12:31:05;18.70;92.50
31819;DHT22;18384;48.860;9.188;2023-05-10T12:33:43;18.60;91.00
31819;DHT22;18384;48.860;9.188;2023-05-10T12:36:13;18.40;91.20
31819;DHT22;18384;48.860;9.188;2023-05-10T12:38:42;18.40;91.60
31819;DHT22;18384;48.860;9.188;2023-05-10T12:41:11;18.40;91.60
31819;DHT22;18384;48.860;9.188;2023-05-10T12:43:39;18.80;91.90
31819;DHT22;18384;48.860;9.188;2023-05-10T12:46:13;18.40;91.80
31819;DHT22;18384;48.860;9.188;2023-05-10T12:48:41;18.40;91.20
31819;DHT22;18384;48.860;9.188;2023-05-10T12:51:08;18.50;92.30
31819;DHT22;18384;48.860;9.188;2023-05-10T12:53:37;18.60;91.10
31819;DHT22;18384;48.860;9.188;2023-05-10T12:56:04;18.70;91.60
31819;DHT22;18384;48.860;9.188;2023-05-10T12:58:31;18.80;91.30
31819;DHT22;18384;48.860;9.188;2023-05-10T13:00:58;18.80;90.80
31819;DHT22;18384;48.860;9.188;2023-05-10T13:03:24;18.90;91.70
31819;DHT22;18384;48.860;9.188;2023-05-10T13:05:50;19.00;91.60
31819;DHT22;18384;48.860;9.188;2023-05-10T13:08:16;19.20;91.80
31819;DHT22;18384;48.860;9.188;2023-05-10T13:10:42;19.20;91.60
31819;DHT22;18384;48.860;9.188;2023-05-10T13:13:09;19.30;91.70
31819;DHT22;18384;48.860;9.188;2023-05-10T13:15:35;19.40;91.20
31819;DHT22;18384;48.860;9.188;2023-05-10T13:18:01;19.40;91.30
31819;DHT22;18384;48.860;9.188;2023-05-10T13:20:27;19.40;91.90
31819;DHT22;18384;48.860;9.188;2023-05-10T13:22:53;19.40;90.20
31819;DHT22;18384;48.860;9.188;2023-05-10T13:25:19;19.40;91.20
31819;DHT22;18384;48.860;9.188;2023-05-10T13:27:45;19.30;92.00
31819;DHT22;18384;48.860;9.188;2023-05-10T13:30:12;19.30;91.10
31819;DHT22;18384;48.860;9.188;2023-05-10T13:32:38;19.10;90.90
31819;DHT22;18384;48.860;9.188;2023-05-10T13:35:05;19.00;90.90
31819;DHT22;18384;48.860;9.188;2023-05-10T13:37:31;19.00;91.00
31819;DHT22;18384;48.860;9.188;2023-05-10T13:40:01;19.00;91.60
31819;DHT22;18384;48.860;9.188;2023-05-10T13:42:27;18.90;91.10
31819;DHT22;18384;48.860;9.188;2023-05-10T13:44:53;18.90;91.40
31819;DHT22;18384;48.860;9.188;2023-05-10T13:47:20;18.80;91.20
31819;DHT22;18384;48.860;9.188;2023-05-10T13:49:47;18.80;91.30
31819;DHT22;18384;48.860;9.188;2023-05-10T13:52:13;18.80;91.70
31819;DHT22;18384;48.860;9.188;2023-05-10T13:54:39;18.80;91.70
31819;DHT22;18384;48.860;9.188;2023-05-10T13:57:05;18.80;92.40
31819;DHT22;18384;48.860;9.188;2023-05-10T13:59:32;18.90;92.90
31819;DHT22;18384;48.860;9.188;2023-05-10T14:01:58;18.90;91.30
31819;DHT22;18384;48.860;9.188;2023-05-10T14:04:25;18.90;90.80
31819;DHT22;18384;48.860;9.188;2023-05-10T14:06:51;19.10;91.40
31819;DHT22;18384;48.860;9.188;2023-05-10T14:09:18;19.10;91.60
31819;DHT22;18384;48.860;9.188;2023-05-10T14:11:44;19.10;90.60
31819;DHT22;18384;48.860;9.188;2023-05-10T14:14:11;19.10;92.30
31819;DHT22;18384;48.860;9.188;2023-05-10T14:16:42;19.10;91.00
31819;DHT22;18384;48.860;9.188;2023-05-10T14:19:09;19.10;90.70
31819;DHT22;18384;48.860;9.188;2023-05-10T14:21:36;19.00;90.70
31819;DHT22;18384;48.860;9.188;2023-05-10T14:24:02;19.00;92.30
31819;DHT22;18384;48.860;9.188;2023-05-10T14:26:28;19.00;90.70
31819;DHT22;18384;48.860;9.188;2023-05-10T14:28:54;18.90;90.10
31819;DHT22;18384;48.860;9.188;2023-05-10T14:31:20;18.80;89.60
31819;DHT22;18384;48.860;9.188;2023-05-10T14:33:47;18.70;88.50
31819;DHT22;18384;48.860;9.188;2023-05-10T14:36:13;18.70;89.50
31819;DHT22;18384;48.860;9.188;2023-05-10T14:38:40;18.70;90.80
31819;DHT22;18384;48.860;9.188;2023-05-10T14:41:06;18.80;90.80
31819;DHT22;18384;48.860;9.188;2023-05-10T14:43:32;18.90;90.30
31819;DHT22;18384;48.860;9.188;2023-05-10T14:45:58;18.90;90.60
31819;DHT22;18384;48.860;9.188;2023-05-10T14:48:24;19.00;90.30
31819;DHT22;18384;48.860;9.188;2023-05-10T14:50:51;19.10;90.20
31819;DHT22;18384;48.860;9.188;2023-05-10T14:53:18;19.10;91.00
31819;DHT22;18384;48.860;9.188;2023-05-10T14:55:44;19.20;89.90
31819;DHT22;18384;48.860;9.188;2023-05-10T14:58:10;19.30;90.30
31819;DHT22;18384;48.860;9.188;2023-05-10T15:00:36;19.30;90.40
31819;DHT22;18384;48.860;9.188;2023-05-10T15:03:02;19.20;90.50
31819;DHT22;18384;48.860;9.188;2023-05-10T15:05:28;19.30;90.80
31819;DHT22;18384;48.860;9.188;2023-05-10T15:07:55;19.20;90.20
31819;DHT22;18384;48.860;9.188;2023-05-10T15:10:21;19.20;89.60
31819;DHT22;18384;48.860;9.188;2023-05-10T15:12:47;19.20;90.20
31819;DHT22;18384;48.860;9.188;2023-05-10T15:15:13;19.20;90.40
31819;DHT22;18384;48.860;9.188;2023-05-10T15:17:39;19.20;91.00
31819;DHT22;18384;48.860;9.188;2023-05-10T15:20:06;19.20;90.10
31819;DHT22;18384;48.860;9.188;2023-05-10T15:22:33;19.20;89.80
31819;DHT22;18384;48.860;9.188;2023-05-10T15:24:59;19.10;89.90
31819;DHT22;18384;48.860;9.188;2023-05-10T15:27:25;19.10;91.00
31819;DHT22;18384;48.860;9.188;2023-05-10T15:29:52;19.00;90.10
31819;DHT22;18384;48.860;9.188;2023-05-10T15:32:18;19.00;89.90
31819;DHT22;18384;48.860;9.188;2023-05-10T15:34:44;18.90;90.10
31819;DHT22;18384;48.860;9.188;2023-05-10T15:37:10;18.90;91.00
31819;DHT22;18384;48.860;9.188;2023-05-10T15:39:37;19.00;91.00
31819;DHT22;18384;48.860;9.188;2023-05-10T15:42:03;19.00;90.20
31819;DHT22;18384;48.860;9.188;2023-05-10T15:44:29;18.90;90.20
31819;DHT22;18384;48.860;9.188;2023-05-10T15:46:55;18.80;90.40